PWSweather.com
Personal Weather Stations
Station Observations
WESTON01
WestonSuperMareGB BS22 8RT

WestonSuperMareGB BS22 8RT

Lat: 51.351508, Lon: -2.933373

Elevation: 15

Station Type: Fine Offset WH1080

http://www.westonweather.co.uk

High Low Average
Temperature 63.4°F17.4°C 49.4°F9.7°C 56.9°F13.8°C
Dew Point 51.1°F10.6°C 37.7°F3.2°C 46.1°F7.8°C
Winds 14.0 mph 22.5 kmh 3.3 mph 5.3 kmh 8.0 mph NE12.9 kmh NE
Wind Gusts 19.3 mph31.1 kmh 4.2 mph6.8 kmh 12.0 mph19.3 kmh
Humidity 82% 53% 68%
Pressure 30.36 in1028.1 mb 30.18 in1022.0 mb -
Precipitation 0.00 in0.0 mm - -
Hour Temp Dew Point Humidity Winds Wind Gusts Pressure Precip Precip Rate Daily Precip Total
12:00 AM 56.0°F13.3°C 47.9°F8.8°C 74% 6.5 mph NE10.5 kmh NE 11.3 mph18.2 kmh 30.21 in1023.0 mb 0.00 in0.0 mm 0.00 in0.0 mm 0.00 in0.0 mm
12:05 AM 56.0°F13.3°C 47.9°F8.8°C 74% 6.5 mph NE10.5 kmh NE 10.1 mph16.3 kmh 30.21 in1023.0 mb 0.00 in0.0 mm 0.00 in0.0 mm 0.00 in0.0 mm
12:10 AM 56.0°F13.3°C 47.9°F8.8°C 74% 7.6 mph NNE12.2 kmh NNE 10.4 mph16.7 kmh 30.21 in1023.0 mb 0.00 in0.0 mm 0.00 in0.0 mm 0.00 in0.0 mm
12:15 AM 56.0°F13.3°C 47.9°F8.8°C 74% 6.1 mph NNE9.8 kmh NNE 10.4 mph16.7 kmh 30.21 in1023.0 mb 0.00 in0.0 mm 0.00 in0.0 mm 0.00 in0.0 mm
12:20 AM 56.0°F13.3°C 47.9°F8.8°C 74% 7.2 mph NNE11.6 kmh NNE 10.4 mph16.7 kmh 30.21 in1023.0 mb 0.00 in0.0 mm 0.00 in0.0 mm 0.00 in0.0 mm
12:25 AM 56.0°F13.3°C 47.9°F8.8°C 74% 6.9 mph NNE11.1 kmh NNE 10.4 mph16.7 kmh 30.21 in1023.0 mb 0.00 in0.0 mm 0.00 in0.0 mm 0.00 in0.0 mm
12:30 AM 56.0°F13.3°C 47.9°F8.8°C 74% 5.2 mph NE8.4 kmh NE 10.1 mph16.3 kmh 30.21 in1023.0 mb 0.00 in0.0 mm 0.00 in0.0 mm 0.00 in0.0 mm
12:35 AM 56.0°F13.3°C 47.9°F8.8°C 74% 5.0 mph NE8.0 kmh NE 10.1 mph16.3 kmh 30.21 in1023.0 mb 0.00 in0.0 mm 0.00 in0.0 mm 0.00 in0.0 mm
12:40 AM 56.0°F13.3°C 47.9°F8.8°C 74% 5.6 mph ENE9.0 kmh ENE 10.1 mph16.3 kmh 30.21 in1023.0 mb 0.00 in0.0 mm 0.00 in0.0 mm 0.00 in0.0 mm
12:45 AM 56.0°F13.3°C 47.9°F8.8°C 74% 5.3 mph ENE8.5 kmh ENE 10.1 mph16.3 kmh 30.21 in1023.0 mb 0.00 in0.0 mm 0.00 in0.0 mm 0.00 in0.0 mm
12:50 AM 55.8°F13.2°C 48.0°F8.9°C 75% 4.4 mph ENE7.1 kmh ENE 9.5 mph15.3 kmh 30.21 in1023.0 mb 0.00 in0.0 mm 0.00 in0.0 mm 0.00 in0.0 mm
12:55 AM 55.8°F13.2°C 48.0°F8.9°C 75% 5.2 mph NE8.4 kmh NE 10.4 mph16.7 kmh 30.21 in1023.0 mb 0.00 in0.0 mm 0.00 in0.0 mm 0.00 in0.0 mm
01:00 AM 55.7°F13.2°C 47.9°F8.8°C 75% 4.7 mph NE7.6 kmh NE 10.4 mph16.7 kmh 30.21 in1023.0 mb 0.00 in0.0 mm 0.00 in0.0 mm 0.00 in0.0 mm
01:05 AM 55.7°F13.2°C 47.9°F8.8°C 75% 4.3 mph ENE6.9 kmh ENE 8.0 mph12.9 kmh 30.21 in1023.0 mb 0.00 in0.0 mm 0.00 in0.0 mm 0.00 in0.0 mm
01:10 AM 55.7°F13.2°C 47.9°F8.8°C 75% 4.6 mph NE7.4 kmh NE 8.0 mph12.9 kmh 30.21 in1023.0 mb 0.00 in0.0 mm 0.00 in0.0 mm 0.00 in0.0 mm
01:15 AM 55.7°F13.2°C 47.9°F8.8°C 75% 3.3 mph NE5.3 kmh NE 4.2 mph6.8 kmh 30.21 in1023.0 mb 0.00 in0.0 mm 0.00 in0.0 mm 0.00 in0.0 mm
01:20 AM 55.5°F13.1°C 48.0°F8.9°C 76% 3.8 mph NE6.1 kmh NE 5.7 mph9.2 kmh 30.21 in1023.0 mb 0.00 in0.0 mm 0.00 in0.0 mm 0.00 in0.0 mm
01:25 AM 55.5°F13.1°C 48.0°F8.9°C 76% 4.5 mph NNE7.2 kmh NNE 6.2 mph10.0 kmh 30.21 in1023.0 mb 0.00 in0.0 mm 0.00 in0.0 mm 0.00 in0.0 mm
01:30 AM 55.5°F13.1°C 48.0°F8.9°C 76% 5.4 mph NE8.7 kmh NE 8.6 mph13.8 kmh 30.21 in1023.0 mb 0.00 in0.0 mm 0.00 in0.0 mm 0.00 in0.0 mm
01:35 AM 55.5°F13.1°C 48.0°F8.9°C 76% 6.8 mph ENE10.9 kmh ENE 10.4 mph16.7 kmh 30.21 in1023.0 mb 0.00 in0.0 mm 0.00 in0.0 mm 0.00 in0.0 mm
01:40 AM 55.7°F13.2°C 48.2°F9.0°C 76% 7.4 mph NE11.9 kmh NE 11.3 mph18.2 kmh 30.21 in1023.0 mb 0.00 in0.0 mm 0.00 in0.0 mm 0.00 in0.0 mm
01:45 AM 55.7°F13.2°C 48.2°F9.0°C 76% 6.5 mph NE10.5 kmh NE 11.3 mph18.2 kmh 30.21 in1023.0 mb 0.00 in0.0 mm 0.00 in0.0 mm 0.00 in0.0 mm
01:50 AM 55.5°F13.1°C 48.0°F8.9°C 76% 5.6 mph NE9.0 kmh NE 9.5 mph15.3 kmh 30.21 in1023.0 mb 0.00 in0.0 mm 0.00 in0.0 mm 0.00 in0.0 mm
01:55 AM 55.5°F13.1°C 48.4°F9.1°C 77% 4.8 mph NE7.7 kmh NE 8.0 mph12.9 kmh 30.21 in1023.0 mb 0.00 in0.0 mm 0.00 in0.0 mm 0.00 in0.0 mm
02:00 AM 55.5°F13.1°C 48.4°F9.1°C 77% 4.2 mph NE6.8 kmh NE 7.1 mph11.4 kmh 30.21 in1023.0 mb 0.00 in0.0 mm 0.00 in0.0 mm 0.00 in0.0 mm
02:05 AM 55.5°F13.1°C 48.4°F9.1°C 77% 4.1 mph NE6.6 kmh NE 7.1 mph11.4 kmh 30.21 in1023.0 mb 0.00 in0.0 mm 0.00 in0.0 mm 0.00 in0.0 mm
02:10 AM 55.5°F13.1°C 48.4°F9.1°C 77% 5.9 mph NE9.5 kmh NE 11.3 mph18.2 kmh 30.18 in1022.0 mb 0.00 in0.0 mm 0.00 in0.0 mm 0.00 in0.0 mm
02:15 AM 55.5°F13.1°C 48.4°F9.1°C 77% 6.2 mph NE10.0 kmh NE 11.3 mph18.2 kmh 30.18 in1022.0 mb 0.00 in0.0 mm 0.00 in0.0 mm 0.00 in0.0 mm
02:20 AM 55.5°F13.1°C 48.4°F9.1°C 77% 5.1 mph NE8.2 kmh NE 8.6 mph13.8 kmh 30.18 in1022.0 mb 0.00 in0.0 mm 0.00 in0.0 mm 0.00 in0.0 mm
02:25 AM 55.5°F13.1°C 48.4°F9.1°C 77% 5.5 mph NE8.9 kmh NE 8.6 mph13.8 kmh 30.21 in1023.0 mb 0.00 in0.0 mm 0.00 in0.0 mm 0.00 in0.0 mm
02:30 AM 55.3°F12.9°C 48.6°F9.2°C 78% 5.6 mph NE9.0 kmh NE 7.7 mph12.4 kmh 30.21 in1023.0 mb 0.00 in0.0 mm 0.00 in0.0 mm 0.00 in0.0 mm
02:35 AM 55.3°F12.9°C 48.6°F9.2°C 78% 6.0 mph NE9.7 kmh NE 10.7 mph17.2 kmh 30.21 in1023.0 mb 0.00 in0.0 mm 0.00 in0.0 mm 0.00 in0.0 mm
02:40 AM 55.1°F12.8°C 48.4°F9.1°C 78% 5.8 mph NE9.3 kmh NE 10.7 mph17.2 kmh 30.21 in1023.0 mb 0.00 in0.0 mm 0.00 in0.0 mm 0.00 in0.0 mm
02:45 AM 55.1°F12.8°C 48.7°F9.3°C 79% 4.8 mph NNE7.7 kmh NNE 6.5 mph10.5 kmh 30.21 in1023.0 mb 0.00 in0.0 mm 0.00 in0.0 mm 0.00 in0.0 mm
02:50 AM 55.1°F12.8°C 48.7°F9.3°C 79% 4.3 mph NNE6.9 kmh NNE 6.5 mph10.5 kmh 30.21 in1023.0 mb 0.00 in0.0 mm 0.00 in0.0 mm 0.00 in0.0 mm
02:55 AM 55.1°F12.8°C 48.7°F9.3°C 79% 4.6 mph NE7.4 kmh NE 5.7 mph9.2 kmh 30.21 in1023.0 mb 0.00 in0.0 mm 0.00 in0.0 mm 0.00 in0.0 mm
03:00 AM 55.1°F12.8°C 48.7°F9.3°C 79% 3.9 mph NE6.3 kmh NE 5.7 mph9.2 kmh 30.21 in1023.0 mb 0.00 in0.0 mm 0.00 in0.0 mm 0.00 in0.0 mm
03:05 AM 55.1°F12.8°C 49.1°F9.5°C 80% 4.6 mph NE7.4 kmh NE 7.7 mph12.4 kmh 30.21 in1023.0 mb 0.00 in0.0 mm 0.00 in0.0 mm 0.00 in0.0 mm
03:10 AM 55.0°F12.8°C 48.9°F9.4°C 80% 5.8 mph NNE9.3 kmh NNE 9.8 mph15.8 kmh 30.21 in1023.0 mb 0.00 in0.0 mm 0.00 in0.0 mm 0.00 in0.0 mm
03:15 AM 55.0°F12.8°C 48.9°F9.4°C 80% 6.3 mph NNE10.1 kmh NNE 9.8 mph15.8 kmh 30.21 in1023.0 mb 0.00 in0.0 mm 0.00 in0.0 mm 0.00 in0.0 mm
03:20 AM 55.0°F12.8°C 48.9°F9.4°C 80% 6.0 mph NNE9.7 kmh NNE 9.8 mph15.8 kmh 30.21 in1023.0 mb 0.00 in0.0 mm 0.00 in0.0 mm 0.00 in0.0 mm
03:25 AM 55.0°F12.8°C 48.9°F9.4°C 80% 5.5 mph NE8.9 kmh NE 8.6 mph13.8 kmh 30.21 in1023.0 mb 0.00 in0.0 mm 0.00 in0.0 mm 0.00 in0.0 mm
03:30 AM 54.8°F12.7°C 48.7°F9.3°C 80% 6.3 mph NE10.1 kmh NE 8.6 mph13.8 kmh 30.21 in1023.0 mb 0.00 in0.0 mm 0.00 in0.0 mm 0.00 in0.0 mm
03:35 AM 54.8°F12.7°C 48.7°F9.3°C 80% 6.4 mph NE10.3 kmh NE 8.3 mph13.4 kmh 30.21 in1023.0 mb 0.00 in0.0 mm 0.00 in0.0 mm 0.00 in0.0 mm
03:40 AM 54.6°F12.6°C 48.9°F9.4°C 81% 6.7 mph NNE10.8 kmh NNE 8.6 mph13.8 kmh 30.21 in1023.0 mb 0.00 in0.0 mm 0.00 in0.0 mm 0.00 in0.0 mm
03:45 AM 54.6°F12.6°C 48.9°F9.4°C 81% 6.5 mph NE10.5 kmh NE 10.1 mph16.3 kmh 30.21 in1023.0 mb 0.00 in0.0 mm 0.00 in0.0 mm 0.00 in0.0 mm
03:50 AM 54.4°F12.4°C 48.7°F9.3°C 81% 5.2 mph NE8.4 kmh NE 10.1 mph16.3 kmh 30.21 in1023.0 mb 0.00 in0.0 mm 0.00 in0.0 mm 0.00 in0.0 mm
03:55 AM 54.4°F12.4°C 48.7°F9.3°C 81% 5.6 mph NNE9.0 kmh NNE 10.4 mph16.7 kmh 30.21 in1023.0 mb 0.00 in0.0 mm 0.00 in0.0 mm 0.00 in0.0 mm
04:00 AM 54.4°F12.4°C 48.7°F9.3°C 81% 5.6 mph NNE9.0 kmh NNE 10.4 mph16.7 kmh 30.21 in1023.0 mb 0.00 in0.0 mm 0.00 in0.0 mm 0.00 in0.0 mm
04:05 AM 54.2°F12.3°C 48.5°F9.2°C 81% 4.3 mph NE6.9 kmh NE 6.5 mph10.5 kmh 30.21 in1023.0 mb 0.00 in0.0 mm 0.00 in0.0 mm 0.00 in0.0 mm
04:10 AM 54.2°F12.3°C 48.5°F9.2°C 81% 4.9 mph NE7.9 kmh NE 7.4 mph11.9 kmh 30.21 in1023.0 mb 0.00 in0.0 mm 0.00 in0.0 mm 0.00 in0.0 mm
04:15 AM 54.2°F12.3°C 48.5°F9.2°C 81% 4.7 mph NNE7.6 kmh NNE 8.6 mph13.8 kmh 30.21 in1023.0 mb 0.00 in0.0 mm 0.00 in0.0 mm 0.00 in0.0 mm
04:20 AM 54.0°F12.2°C 48.3°F9.1°C 81% 4.5 mph NE7.2 kmh NE 8.6 mph13.8 kmh 30.21 in1023.0 mb 0.00 in0.0 mm 0.00 in0.0 mm 0.00 in0.0 mm
04:25 AM 54.0°F12.2°C 48.3°F9.1°C 81% 5.5 mph NNE8.9 kmh NNE 7.7 mph12.4 kmh 30.21 in1023.0 mb 0.00 in0.0 mm 0.00 in0.0 mm 0.00 in0.0 mm
04:35 AM 54.0°F12.2°C 48.7°F9.3°C 82% 5.9 mph NNE9.5 kmh NNE 8.3 mph13.4 kmh 30.21 in1023.0 mb 0.00 in0.0 mm 0.00 in0.0 mm 0.00 in0.0 mm
04:40 AM 54.0°F12.2°C 48.7°F9.3°C 82% 6.5 mph NNE10.5 kmh NNE 8.3 mph13.4 kmh 30.21 in1023.0 mb 0.00 in0.0 mm 0.00 in0.0 mm 0.00 in0.0 mm
04:45 AM 54.0°F12.2°C 48.7°F9.3°C 82% 5.1 mph NE8.2 kmh NE 7.4 mph11.9 kmh 30.21 in1023.0 mb 0.00 in0.0 mm 0.00 in0.0 mm 0.00 in0.0 mm
04:50 AM 54.0°F12.2°C 48.7°F9.3°C 82% 4.7 mph ENE7.6 kmh ENE 5.4 mph8.7 kmh 30.21 in1023.0 mb 0.00 in0.0 mm 0.00 in0.0 mm 0.00 in0.0 mm
04:55 AM 54.0°F12.2°C 48.7°F9.3°C 82% 5.2 mph E8.4 kmh E 6.2 mph10.0 kmh 30.24 in1024.0 mb 0.00 in0.0 mm 0.00 in0.0 mm 0.00 in0.0 mm
05:00 AM 54.0°F12.2°C 48.7°F9.3°C 82% 6.4 mph NE10.3 kmh NE 9.8 mph15.8 kmh 30.24 in1024.0 mb 0.00 in0.0 mm 0.00 in0.0 mm 0.00 in0.0 mm
05:05 AM 54.0°F12.2°C 48.7°F9.3°C 82% 6.5 mph NE10.5 kmh NE 9.8 mph15.8 kmh 30.24 in1024.0 mb 0.00 in0.0 mm 0.00 in0.0 mm 0.00 in0.0 mm
05:10 AM 54.0°F12.2°C 48.3°F9.1°C 81% 5.7 mph NNE9.2 kmh NNE 8.3 mph13.4 kmh 30.24 in1024.0 mb 0.00 in0.0 mm 0.00 in0.0 mm 0.00 in0.0 mm
05:15 AM 54.0°F12.2°C 48.3°F9.1°C 81% 6.0 mph NE9.7 kmh NE 8.3 mph13.4 kmh 30.24 in1024.0 mb 0.00 in0.0 mm 0.00 in0.0 mm 0.00 in0.0 mm
05:20 AM 54.0°F12.2°C 48.3°F9.1°C 81% 6.3 mph NNE10.1 kmh NNE 10.4 mph16.7 kmh 30.24 in1024.0 mb 0.00 in0.0 mm 0.00 in0.0 mm 0.00 in0.0 mm
05:25 AM 54.0°F12.2°C 48.3°F9.1°C 81% 6.6 mph NNE10.6 kmh NNE 10.4 mph16.7 kmh 30.24 in1024.0 mb 0.00 in0.0 mm 0.00 in0.0 mm 0.00 in0.0 mm
05:30 AM 54.0°F12.2°C 48.3°F9.1°C 81% 6.7 mph NNE10.8 kmh NNE 13.1 mph21.1 kmh 30.24 in1024.0 mb 0.00 in0.0 mm 0.00 in0.0 mm 0.00 in0.0 mm
05:35 AM 54.0°F12.2°C 48.3°F9.1°C 81% 7.9 mph NE12.7 kmh NE 13.1 mph21.1 kmh 30.24 in1024.0 mb 0.00 in0.0 mm 0.00 in0.0 mm 0.00 in0.0 mm
05:40 AM 54.2°F12.3°C 48.5°F9.2°C 81% 7.0 mph NE11.3 kmh NE 10.4 mph16.7 kmh 30.24 in1024.0 mb 0.00 in0.0 mm 0.00 in0.0 mm 0.00 in0.0 mm
05:45 AM 54.2°F12.3°C 48.5°F9.2°C 81% 6.1 mph E9.8 kmh E 13.7 mph22.0 kmh 30.24 in1024.0 mb 0.00 in0.0 mm 0.00 in0.0 mm 0.00 in0.0 mm
05:50 AM 54.2°F12.3°C 48.5°F9.2°C 81% 7.8 mph ENE12.6 kmh ENE 13.7 mph22.0 kmh 30.24 in1024.0 mb 0.00 in0.0 mm 0.00 in0.0 mm 0.00 in0.0 mm
05:55 AM 54.2°F12.3°C 48.2°F9.0°C 80% 8.4 mph NE13.5 kmh NE 12.8 mph20.6 kmh 30.24 in1024.0 mb 0.00 in0.0 mm 0.00 in0.0 mm 0.00 in0.0 mm
06:00 AM 54.4°F12.4°C 48.4°F9.1°C 80% 7.5 mph NE12.1 kmh NE 12.8 mph20.6 kmh 30.24 in1024.0 mb 0.00 in0.0 mm 0.00 in0.0 mm 0.00 in0.0 mm
06:05 AM 54.4°F12.4°C 48.4°F9.1°C 80% 7.5 mph NE12.1 kmh NE 14.3 mph23.0 kmh 30.24 in1024.0 mb 0.00 in0.0 mm 0.00 in0.0 mm 0.00 in0.0 mm
06:10 AM 54.4°F12.4°C 48.4°F9.1°C 80% 7.1 mph NE11.4 kmh NE 14.3 mph23.0 kmh 30.24 in1024.0 mb 0.00 in0.0 mm 0.00 in0.0 mm 0.00 in0.0 mm
06:15 AM 54.4°F12.4°C 48.0°F8.9°C 79% 5.9 mph NE9.5 kmh NE 11.3 mph18.2 kmh 30.24 in1024.0 mb 0.00 in0.0 mm 0.00 in0.0 mm 0.00 in0.0 mm
06:20 AM 54.6°F12.6°C 48.2°F9.0°C 79% 6.2 mph NE10.0 kmh NE 11.3 mph18.2 kmh 30.24 in1024.0 mb 0.00 in0.0 mm 0.00 in0.0 mm 0.00 in0.0 mm
06:25 AM 54.6°F12.6°C 48.2°F9.0°C 79% 6.0 mph NE9.7 kmh NE 10.1 mph16.3 kmh 30.24 in1024.0 mb 0.00 in0.0 mm 0.00 in0.0 mm 0.00 in0.0 mm
06:30 AM 54.6°F12.6°C 48.2°F9.0°C 79% 5.3 mph ENE8.5 kmh ENE 8.6 mph13.8 kmh 30.24 in1024.0 mb 0.00 in0.0 mm 0.00 in0.0 mm 0.00 in0.0 mm
06:35 AM 54.8°F12.7°C 48.4°F9.1°C 79% 6.6 mph E10.6 kmh E 13.7 mph22.0 kmh 30.24 in1024.0 mb 0.00 in0.0 mm 0.00 in0.0 mm 0.00 in0.0 mm
06:40 AM 54.8°F12.7°C 48.4°F9.1°C 79% 7.7 mph ENE12.4 kmh ENE 13.7 mph22.0 kmh 30.24 in1024.0 mb 0.00 in0.0 mm 0.00 in0.0 mm 0.00 in0.0 mm
06:45 AM 54.8°F12.7°C 48.4°F9.1°C 79% 7.3 mph NE11.7 kmh NE 10.7 mph17.2 kmh 30.24 in1024.0 mb 0.00 in0.0 mm 0.00 in0.0 mm 0.00 in0.0 mm
06:50 AM 54.8°F12.7°C 48.4°F9.1°C 79% 7.0 mph NE11.3 kmh NE 10.7 mph17.2 kmh 30.24 in1024.0 mb 0.00 in0.0 mm 0.00 in0.0 mm 0.00 in0.0 mm
06:55 AM 55.0°F12.8°C 48.6°F9.2°C 79% 6.5 mph NE10.5 kmh NE 9.8 mph15.8 kmh 30.24 in1024.0 mb 0.00 in0.0 mm 0.00 in0.0 mm 0.00 in0.0 mm
07:00 AM 55.1°F12.8°C 48.7°F9.3°C 79% 6.4 mph NE10.3 kmh NE 8.6 mph13.8 kmh 30.24 in1024.0 mb 0.00 in0.0 mm 0.00 in0.0 mm 0.00 in0.0 mm
07:05 AM 55.3°F12.9°C 48.9°F9.4°C 79% 6.6 mph NE10.6 kmh NE 10.1 mph16.3 kmh 30.24 in1024.0 mb 0.00 in0.0 mm 0.00 in0.0 mm 0.00 in0.0 mm
07:10 AM 55.5°F13.1°C 48.7°F9.3°C 78% 7.9 mph NNE12.7 kmh NNE 11.6 mph18.7 kmh 30.24 in1024.0 mb 0.00 in0.0 mm 0.00 in0.0 mm 0.00 in0.0 mm
07:15 AM 55.7°F13.2°C 48.9°F9.4°C 78% 8.6 mph NE13.8 kmh NE 11.6 mph18.7 kmh 30.24 in1024.0 mb 0.00 in0.0 mm 0.00 in0.0 mm 0.00 in0.0 mm
07:20 AM 55.8°F13.2°C 49.1°F9.5°C 78% 8.3 mph NE13.4 kmh NE 11.3 mph18.2 kmh 30.24 in1024.0 mb 0.00 in0.0 mm 0.00 in0.0 mm 0.00 in0.0 mm
07:25 AM 56.0°F13.3°C 49.3°F9.6°C 78% 6.7 mph NE10.8 kmh NE 8.6 mph13.8 kmh 30.27 in1025.1 mb 0.00 in0.0 mm 0.00 in0.0 mm 0.00 in0.0 mm
07:30 AM 56.4°F13.6°C 49.6°F9.8°C 78% 7.0 mph ENE11.3 kmh ENE 12.2 mph19.6 kmh 30.27 in1025.1 mb 0.00 in0.0 mm 0.00 in0.0 mm 0.00 in0.0 mm
07:35 AM 56.9°F13.8°C 50.1°F10.1°C 78% 8.6 mph ENE13.8 kmh ENE 13.1 mph21.1 kmh 30.27 in1025.1 mb 0.00 in0.0 mm 0.00 in0.0 mm 0.00 in0.0 mm
07:40 AM 57.5°F14.2°C 50.3°F10.2°C 77% 9.7 mph NE15.6 kmh NE 13.1 mph21.1 kmh 30.27 in1025.1 mb 0.00 in0.0 mm 0.00 in0.0 mm 0.00 in0.0 mm
07:45 AM 57.8°F14.3°C 50.7°F10.4°C 77% 8.4 mph NE13.5 kmh NE 13.1 mph21.1 kmh 30.27 in1025.1 mb 0.00 in0.0 mm 0.00 in0.0 mm 0.00 in0.0 mm
07:50 AM 58.2°F14.6°C 50.7°F10.4°C 76% 7.5 mph NE12.1 kmh NE 12.8 mph20.6 kmh 30.27 in1025.1 mb 0.00 in0.0 mm 0.00 in0.0 mm 0.00 in0.0 mm
07:55 AM 58.4°F14.7°C 50.8°F10.4°C 76% 7.8 mph NE12.6 kmh NE 10.7 mph17.2 kmh 30.27 in1025.1 mb 0.00 in0.0 mm 0.00 in0.0 mm 0.00 in0.0 mm
08:00 AM 58.4°F14.7°C 50.5°F10.3°C 75% 7.3 mph NE11.7 kmh NE 10.1 mph16.3 kmh 30.27 in1025.1 mb 0.00 in0.0 mm 0.00 in0.0 mm 0.00 in0.0 mm
08:05 AM 58.4°F14.7°C 50.5°F10.3°C 75% 7.5 mph ENE12.1 kmh ENE 12.8 mph20.6 kmh 30.27 in1025.1 mb 0.00 in0.0 mm 0.00 in0.0 mm 0.00 in0.0 mm
08:10 AM 58.2°F14.6°C 49.9°F9.9°C 74% 8.5 mph NE13.7 kmh NE 12.8 mph20.6 kmh 30.27 in1025.1 mb 0.00 in0.0 mm 0.00 in0.0 mm 0.00 in0.0 mm
08:15 AM 58.2°F14.6°C 49.9°F9.9°C 74% 7.5 mph NNE12.1 kmh NNE 10.7 mph17.2 kmh 30.27 in1025.1 mb 0.00 in0.0 mm 0.00 in0.0 mm 0.00 in0.0 mm
08:20 AM 58.2°F14.6°C 49.9°F9.9°C 74% 7.2 mph NNE11.6 kmh NNE 10.7 mph17.2 kmh 30.27 in1025.1 mb 0.00 in0.0 mm 0.00 in0.0 mm 0.00 in0.0 mm
08:25 AM 58.2°F14.6°C 49.9°F9.9°C 74% 7.3 mph NNE11.7 kmh NNE 10.1 mph16.3 kmh 30.27 in1025.1 mb 0.00 in0.0 mm 0.00 in0.0 mm 0.00 in0.0 mm
08:30 AM 58.2°F14.6°C 49.9°F9.9°C 74% 8.3 mph NNE13.4 kmh NNE 10.7 mph17.2 kmh 30.27 in1025.1 mb 0.00 in0.0 mm 0.00 in0.0 mm 0.00 in0.0 mm
08:35 AM 58.2°F14.6°C 49.9°F9.9°C 74% 8.5 mph NNE13.7 kmh NNE 10.7 mph17.2 kmh 30.27 in1025.1 mb 0.00 in0.0 mm 0.00 in0.0 mm 0.00 in0.0 mm
08:40 AM 58.2°F14.6°C 49.9°F9.9°C 74% 6.6 mph NNE10.6 kmh NNE 9.8 mph15.8 kmh 30.27 in1025.1 mb 0.00 in0.0 mm 0.00 in0.0 mm 0.00 in0.0 mm
08:45 AM 58.2°F14.6°C 49.6°F9.8°C 73% 6.5 mph NE10.5 kmh NE 9.5 mph15.3 kmh 30.27 in1025.1 mb 0.00 in0.0 mm 0.00 in0.0 mm 0.00 in0.0 mm
08:50 AM 58.0°F14.4°C 49.4°F9.7°C 73% 7.5 mph E12.1 kmh E 10.4 mph16.7 kmh 30.27 in1025.1 mb 0.00 in0.0 mm 0.00 in0.0 mm 0.00 in0.0 mm
08:55 AM 58.2°F14.6°C 49.6°F9.8°C 73% 7.9 mph NE12.7 kmh NE 10.4 mph16.7 kmh 30.27 in1025.1 mb 0.00 in0.0 mm 0.00 in0.0 mm 0.00 in0.0 mm
09:00 AM 58.0°F14.4°C 49.4°F9.7°C 73% 8.5 mph NE13.7 kmh NE 13.4 mph21.6 kmh 30.27 in1025.1 mb 0.00 in0.0 mm 0.00 in0.0 mm 0.00 in0.0 mm
09:05 AM 58.0°F14.4°C 49.4°F9.7°C 73% 9.5 mph NE15.3 kmh NE 14.3 mph23.0 kmh 30.27 in1025.1 mb 0.00 in0.0 mm 0.00 in0.0 mm 0.00 in0.0 mm
09:10 AM 58.0°F14.4°C 49.4°F9.7°C 73% 10.4 mph ENE16.7 kmh ENE 14.3 mph23.0 kmh 30.27 in1025.1 mb 0.00 in0.0 mm 0.00 in0.0 mm 0.00 in0.0 mm
09:15 AM 57.7°F14.3°C 49.1°F9.5°C 73% 10.6 mph NE17.1 kmh NE 14.3 mph23.0 kmh 30.27 in1025.1 mb 0.00 in0.0 mm 0.00 in0.0 mm 0.00 in0.0 mm
09:20 AM 57.5°F14.2°C 48.9°F9.4°C 73% 10.3 mph NE16.6 kmh NE 14.3 mph23.0 kmh 30.27 in1025.1 mb 0.00 in0.0 mm 0.00 in0.0 mm 0.00 in0.0 mm
09:25 AM 57.3°F14.1°C 49.1°F9.5°C 74% 9.1 mph NE14.6 kmh NE 14.0 mph22.5 kmh 30.30 in1026.1 mb 0.00 in0.0 mm 0.00 in0.0 mm 0.00 in0.0 mm
09:30 AM 57.1°F13.9°C 48.9°F9.4°C 74% 7.6 mph NNE12.2 kmh NNE 14.0 mph22.5 kmh 30.30 in1026.1 mb 0.00 in0.0 mm 0.00 in0.0 mm 0.00 in0.0 mm
09:35 AM 56.9°F13.8°C 48.7°F9.3°C 74% 7.0 mph NNE11.3 kmh NNE 10.7 mph17.2 kmh 30.30 in1026.1 mb 0.00 in0.0 mm 0.00 in0.0 mm 0.00 in0.0 mm
09:40 AM 56.8°F13.8°C 48.6°F9.2°C 74% 7.4 mph NE11.9 kmh NE 10.7 mph17.2 kmh 30.30 in1026.1 mb 0.00 in0.0 mm 0.00 in0.0 mm 0.00 in0.0 mm
09:45 AM 56.8°F13.8°C 48.6°F9.2°C 74% 7.6 mph ENE12.2 kmh ENE 10.1 mph16.3 kmh 30.30 in1026.1 mb 0.00 in0.0 mm 0.00 in0.0 mm 0.00 in0.0 mm
09:50 AM 56.8°F13.8°C 48.6°F9.2°C 74% 7.7 mph ENE12.4 kmh ENE 11.6 mph18.7 kmh 30.30 in1026.1 mb 0.00 in0.0 mm 0.00 in0.0 mm 0.00 in0.0 mm
09:55 AM 56.8°F13.8°C 48.6°F9.2°C 74% 8.0 mph NE12.9 kmh NE 14.9 mph24.0 kmh 30.30 in1026.1 mb 0.00 in0.0 mm 0.00 in0.0 mm 0.00 in0.0 mm
10:00 AM 56.8°F13.8°C 48.6°F9.2°C 74% 6.9 mph NE11.1 kmh NE 14.9 mph24.0 kmh 30.30 in1026.1 mb 0.00 in0.0 mm 0.00 in0.0 mm 0.00 in0.0 mm
10:05 AM 57.1°F13.9°C 49.3°F9.6°C 75% 5.9 mph NNE9.5 kmh NNE 11.3 mph18.2 kmh 30.30 in1026.1 mb 0.00 in0.0 mm 0.00 in0.0 mm 0.00 in0.0 mm
10:10 AM 57.1°F13.9°C 49.3°F9.6°C 75% 7.4 mph NE11.9 kmh NE 11.3 mph18.2 kmh 30.30 in1026.1 mb 0.00 in0.0 mm 0.00 in0.0 mm 0.00 in0.0 mm
10:15 AM 57.3°F14.1°C 49.4°F9.7°C 75% 8.5 mph NE13.7 kmh NE 12.5 mph20.1 kmh 30.30 in1026.1 mb 0.00 in0.0 mm 0.00 in0.0 mm 0.00 in0.0 mm
10:20 AM 57.3°F14.1°C 49.4°F9.7°C 75% 7.5 mph NNE12.1 kmh NNE 12.5 mph20.1 kmh 30.30 in1026.1 mb 0.00 in0.0 mm 0.00 in0.0 mm 0.00 in0.0 mm
10:25 AM 58.0°F14.4°C 50.1°F10.1°C 75% 6.9 mph NE11.1 kmh NE 11.3 mph18.2 kmh 30.30 in1026.1 mb 0.00 in0.0 mm 0.00 in0.0 mm 0.00 in0.0 mm
10:30 AM 58.7°F14.8°C 50.8°F10.4°C 75% 7.2 mph ENE11.6 kmh ENE 11.3 mph18.2 kmh 30.30 in1026.1 mb 0.00 in0.0 mm 0.00 in0.0 mm 0.00 in0.0 mm
10:35 AM 59.1°F15.1°C 50.8°F10.4°C 74% 8.4 mph NE13.5 kmh NE 16.1 mph25.9 kmh 30.30 in1026.1 mb 0.00 in0.0 mm 0.00 in0.0 mm 0.00 in0.0 mm
10:40 AM 59.6°F15.3°C 51.0°F10.6°C 73% 7.3 mph NNE11.7 kmh NNE 16.1 mph25.9 kmh 30.30 in1026.1 mb 0.00 in0.0 mm 0.00 in0.0 mm 0.00 in0.0 mm
10:45 AM 59.6°F15.3°C 51.0°F10.6°C 73% 6.3 mph NE10.1 kmh NE 10.4 mph16.7 kmh 30.30 in1026.1 mb 0.00 in0.0 mm 0.00 in0.0 mm 0.00 in0.0 mm
10:50 AM 59.8°F15.4°C 51.1°F10.6°C 73% 7.2 mph NE11.6 kmh NE 10.4 mph16.7 kmh 30.30 in1026.1 mb 0.00 in0.0 mm 0.00 in0.0 mm 0.00 in0.0 mm
10:55 AM 59.8°F15.4°C 50.8°F10.4°C 72% 6.6 mph NE10.6 kmh NE 10.4 mph16.7 kmh 30.30 in1026.1 mb 0.00 in0.0 mm 0.00 in0.0 mm 0.00 in0.0 mm
11:00 AM 60.2°F15.7°C 51.1°F10.6°C 72% 7.2 mph NE11.6 kmh NE 11.6 mph18.7 kmh 30.30 in1026.1 mb 0.00 in0.0 mm 0.00 in0.0 mm 0.00 in0.0 mm
11:05 AM 60.0°F15.6°C 50.6°F10.3°C 71% 9.1 mph NE14.6 kmh NE 13.1 mph21.1 kmh 30.30 in1026.1 mb 0.00 in0.0 mm 0.00 in0.0 mm 0.00 in0.0 mm
11:10 AM 60.0°F15.6°C 50.2°F10.1°C 70% 10.0 mph ENE16.1 kmh ENE 14.0 mph22.5 kmh 30.30 in1026.1 mb 0.00 in0.0 mm 0.00 in0.0 mm 0.00 in0.0 mm
11:15 AM 60.0°F15.6°C 50.2°F10.1°C 70% 8.7 mph ENE14.0 kmh ENE 14.0 mph22.5 kmh 30.30 in1026.1 mb 0.00 in0.0 mm 0.00 in0.0 mm 0.00 in0.0 mm
11:20 AM 60.2°F15.7°C 50.3°F10.2°C 70% 8.5 mph NE13.7 kmh NE 13.1 mph21.1 kmh 30.30 in1026.1 mb 0.00 in0.0 mm 0.00 in0.0 mm 0.00 in0.0 mm
11:25 AM 60.0°F15.6°C 49.8°F9.9°C 69% 9.6 mph NE15.4 kmh NE 13.1 mph21.1 kmh 30.30 in1026.1 mb 0.00 in0.0 mm 0.00 in0.0 mm 0.00 in0.0 mm
11:30 AM 60.2°F15.7°C 50.0°F10.0°C 69% 9.2 mph NE14.8 kmh NE 13.1 mph21.1 kmh 30.30 in1026.1 mb 0.00 in0.0 mm 0.00 in0.0 mm 0.00 in0.0 mm
11:35 AM 60.5°F15.8°C 49.9°F9.9°C 68% 8.5 mph NE13.7 kmh NE 13.1 mph21.1 kmh 30.30 in1026.1 mb 0.00 in0.0 mm 0.00 in0.0 mm 0.00 in0.0 mm
11:40 AM 60.7°F15.9°C 50.1°F10.1°C 68% 9.9 mph NE15.9 kmh NE 13.1 mph21.1 kmh 30.30 in1026.1 mb 0.00 in0.0 mm 0.00 in0.0 mm 0.00 in0.0 mm
11:45 AM 61.1°F16.2°C 50.0°F10.0°C 67% 8.9 mph ENE14.3 kmh ENE 12.8 mph20.6 kmh 30.30 in1026.1 mb 0.00 in0.0 mm 0.00 in0.0 mm 0.00 in0.0 mm
11:50 AM 61.4°F16.3°C 50.4°F10.2°C 67% 7.4 mph E11.9 kmh E 12.8 mph20.6 kmh 30.30 in1026.1 mb 0.00 in0.0 mm 0.00 in0.0 mm 0.00 in0.0 mm
11:55 AM 62.0°F16.7°C 50.5°F10.3°C 66% 8.0 mph NE12.9 kmh NE 12.8 mph20.6 kmh 30.30 in1026.1 mb 0.00 in0.0 mm 0.00 in0.0 mm 0.00 in0.0 mm
12:00 PM 62.2°F16.8°C 49.8°F9.9°C 64% 10.5 mph NE16.9 kmh NE 17.0 mph27.4 kmh 30.30 in1026.1 mb 0.00 in0.0 mm 0.00 in0.0 mm 0.00 in0.0 mm
12:05 PM 62.3°F16.8°C 50.0°F10.0°C 64% 11.4 mph NE18.3 kmh NE 17.0 mph27.4 kmh 30.30 in1026.1 mb 0.00 in0.0 mm 0.00 in0.0 mm 0.00 in0.0 mm
12:10 PM 62.7°F17.1°C 49.9°F9.9°C 63% 10.1 mph ENE16.3 kmh ENE 14.3 mph23.0 kmh 30.30 in1026.1 mb 0.00 in0.0 mm 0.00 in0.0 mm 0.00 in0.0 mm
12:15 PM 62.7°F17.1°C 49.5°F9.7°C 62% 9.8 mph ENE15.8 kmh ENE 14.3 mph23.0 kmh 30.30 in1026.1 mb 0.00 in0.0 mm 0.00 in0.0 mm 0.00 in0.0 mm
12:20 PM 63.2°F17.3°C 50.0°F10.0°C 62% 9.1 mph ENE14.6 kmh ENE 14.0 mph22.5 kmh 30.30 in1026.1 mb 0.00 in0.0 mm 0.00 in0.0 mm 0.00 in0.0 mm
12:25 PM 63.4°F17.4°C 49.3°F9.6°C 60% 10.2 mph ENE16.4 kmh ENE 16.1 mph25.9 kmh 30.30 in1026.1 mb 0.00 in0.0 mm 0.00 in0.0 mm 0.00 in0.0 mm
12:30 PM 63.4°F17.4°C 49.3°F9.6°C 60% 9.2 mph E14.8 kmh E 16.1 mph25.9 kmh 30.30 in1026.1 mb 0.00 in0.0 mm 0.00 in0.0 mm 0.00 in0.0 mm
12:35 PM 63.2°F17.3°C 49.1°F9.5°C 60% 10.3 mph ENE16.6 kmh ENE 16.7 mph26.9 kmh 30.30 in1026.1 mb 0.00 in0.0 mm 0.00 in0.0 mm 0.00 in0.0 mm
12:40 PM 63.4°F17.4°C 49.3°F9.6°C 60% 11.1 mph NE17.9 kmh NE 16.7 mph26.9 kmh 30.30 in1026.1 mb 0.00 in0.0 mm 0.00 in0.0 mm 0.00 in0.0 mm
12:45 PM 63.2°F17.3°C 48.7°F9.3°C 59% 10.6 mph NE17.1 kmh NE 13.7 mph22.0 kmh 30.30 in1026.1 mb 0.00 in0.0 mm 0.00 in0.0 mm 0.00 in0.0 mm
12:50 PM 63.2°F17.3°C 49.1°F9.5°C 60% 12.1 mph NE19.5 kmh NE 17.6 mph28.3 kmh 30.30 in1026.1 mb 0.00 in0.0 mm 0.00 in0.0 mm 0.00 in0.0 mm
12:55 PM 63.0°F17.2°C 48.5°F9.2°C 59% 11.2 mph NE18.0 kmh NE 17.6 mph28.3 kmh 30.30 in1026.1 mb 0.00 in0.0 mm 0.00 in0.0 mm 0.00 in0.0 mm
01:00 PM 63.0°F17.2°C 48.5°F9.2°C 59% 9.4 mph NE15.1 kmh NE 16.1 mph25.9 kmh 30.30 in1026.1 mb 0.00 in0.0 mm 0.00 in0.0 mm 0.00 in0.0 mm
01:05 PM 62.7°F17.1°C 48.2°F9.0°C 59% 10.1 mph NE16.3 kmh NE 13.4 mph21.6 kmh 30.30 in1026.1 mb 0.00 in0.0 mm 0.00 in0.0 mm 0.00 in0.0 mm
01:10 PM 62.3°F16.8°C 47.8°F8.8°C 59% 10.3 mph NE16.6 kmh NE 13.4 mph21.6 kmh 30.30 in1026.1 mb 0.00 in0.0 mm 0.00 in0.0 mm 0.00 in0.0 mm
01:15 PM 62.0°F16.7°C 47.5°F8.6°C 59% 11.5 mph ENE18.5 kmh ENE 16.7 mph26.9 kmh 30.30 in1026.1 mb 0.00 in0.0 mm 0.00 in0.0 mm 0.00 in0.0 mm
01:20 PM 61.8°F16.6°C 47.3°F8.5°C 59% 12.4 mph NE20.0 kmh NE 16.7 mph26.9 kmh 30.30 in1026.1 mb 0.00 in0.0 mm 0.00 in0.0 mm 0.00 in0.0 mm
01:25 PM 61.8°F16.6°C 47.3°F8.5°C 59% 11.5 mph NE18.5 kmh NE 16.4 mph26.4 kmh 30.33 in1027.1 mb 0.00 in0.0 mm 0.00 in0.0 mm 0.00 in0.0 mm
01:30 PM 61.8°F16.6°C 47.3°F8.5°C 59% 11.8 mph NE19.0 kmh NE 17.0 mph27.4 kmh 30.33 in1027.1 mb 0.00 in0.0 mm 0.00 in0.0 mm 0.00 in0.0 mm
01:35 PM 61.8°F16.6°C 47.3°F8.5°C 59% 12.9 mph NE20.8 kmh NE 17.0 mph27.4 kmh 30.33 in1027.1 mb 0.00 in0.0 mm 0.00 in0.0 mm 0.00 in0.0 mm
01:40 PM 61.8°F16.6°C 47.3°F8.5°C 59% 14.0 mph ENE22.5 kmh ENE 19.3 mph31.1 kmh 30.33 in1027.1 mb 0.00 in0.0 mm 0.00 in0.0 mm 0.00 in0.0 mm
01:45 PM 61.6°F16.4°C 47.1°F8.4°C 59% 13.3 mph ENE21.4 kmh ENE 19.3 mph31.1 kmh 30.33 in1027.1 mb 0.00 in0.0 mm 0.00 in0.0 mm 0.00 in0.0 mm
01:50 PM 61.6°F16.4°C 47.1°F8.4°C 59% 10.6 mph ENE17.1 kmh ENE 14.6 mph23.5 kmh 30.33 in1027.1 mb 0.00 in0.0 mm 0.00 in0.0 mm 0.00 in0.0 mm
01:55 PM 61.4°F16.3°C 47.0°F8.3°C 59% 11.8 mph ENE19.0 kmh ENE 16.7 mph26.9 kmh 30.33 in1027.1 mb 0.00 in0.0 mm 0.00 in0.0 mm 0.00 in0.0 mm
02:00 PM 61.4°F16.3°C 47.0°F8.3°C 59% 11.9 mph ENE19.2 kmh ENE 16.7 mph26.9 kmh 30.33 in1027.1 mb 0.00 in0.0 mm 0.00 in0.0 mm 0.00 in0.0 mm
02:05 PM 61.3°F16.3°C 46.8°F8.2°C 59% 10.6 mph NE17.1 kmh NE 14.3 mph23.0 kmh 30.33 in1027.1 mb 0.00 in0.0 mm 0.00 in0.0 mm 0.00 in0.0 mm
02:10 PM 61.4°F16.3°C 47.0°F8.3°C 59% 11.2 mph ENE18.0 kmh ENE 16.1 mph25.9 kmh 30.33 in1027.1 mb 0.00 in0.0 mm 0.00 in0.0 mm 0.00 in0.0 mm
02:15 PM 61.4°F16.3°C 47.0°F8.3°C 59% 10.7 mph ENE17.2 kmh ENE 16.1 mph25.9 kmh 30.33 in1027.1 mb 0.00 in0.0 mm 0.00 in0.0 mm 0.00 in0.0 mm
02:20 PM 61.4°F16.3°C 47.0°F8.3°C 59% 10.9 mph NE17.5 kmh NE 15.8 mph25.4 kmh 30.33 in1027.1 mb 0.00 in0.0 mm 0.00 in0.0 mm 0.00 in0.0 mm
02:25 PM 61.4°F16.3°C 47.0°F8.3°C 59% 10.1 mph NE16.3 kmh NE 15.8 mph25.4 kmh 30.33 in1027.1 mb 0.00 in0.0 mm 0.00 in0.0 mm 0.00 in0.0 mm
02:30 PM 61.6°F16.4°C 47.1°F8.4°C 59% 9.4 mph NE15.1 kmh NE 14.3 mph23.0 kmh 30.33 in1027.1 mb 0.00 in0.0 mm 0.00 in0.0 mm 0.00 in0.0 mm
02:35 PM 61.4°F16.3°C 47.0°F8.3°C 59% 9.9 mph NE15.9 kmh NE 14.3 mph23.0 kmh 30.33 in1027.1 mb 0.00 in0.0 mm 0.00 in0.0 mm 0.00 in0.0 mm
02:40 PM 61.4°F16.3°C 47.0°F8.3°C 59% 9.7 mph NE15.6 kmh NE 14.3 mph23.0 kmh 30.33 in1027.1 mb 0.00 in0.0 mm 0.00 in0.0 mm 0.00 in0.0 mm
02:45 PM 61.3°F16.3°C 46.8°F8.2°C 59% 9.3 mph NE15.0 kmh NE 11.6 mph18.7 kmh 30.33 in1027.1 mb 0.00 in0.0 mm 0.00 in0.0 mm 0.00 in0.0 mm
02:50 PM 61.3°F16.3°C 46.8°F8.2°C 59% 8.6 mph NE13.8 kmh NE 11.6 mph18.7 kmh 30.33 in1027.1 mb 0.00 in0.0 mm 0.00 in0.0 mm 0.00 in0.0 mm
02:55 PM 61.1°F16.2°C 46.6°F8.1°C 59% 8.1 mph NE13.0 kmh NE 13.7 mph22.0 kmh 30.33 in1027.1 mb 0.00 in0.0 mm 0.00 in0.0 mm 0.00 in0.0 mm
03:00 PM 61.1°F16.2°C 46.6°F8.1°C 59% 7.2 mph NE11.6 kmh NE 13.7 mph22.0 kmh 30.33 in1027.1 mb 0.00 in0.0 mm 0.00 in0.0 mm 0.00 in0.0 mm
03:05 PM 61.3°F16.3°C 46.8°F8.2°C 59% 7.0 mph ENE11.3 kmh ENE 10.4 mph16.7 kmh 30.33 in1027.1 mb 0.00 in0.0 mm 0.00 in0.0 mm 0.00 in0.0 mm
03:10 PM 61.4°F16.3°C 47.0°F8.3°C 59% 8.7 mph ENE14.0 kmh ENE 11.6 mph18.7 kmh 30.30 in1026.1 mb 0.00 in0.0 mm 0.00 in0.0 mm 0.00 in0.0 mm
03:15 PM 61.4°F16.3°C 47.0°F8.3°C 59% 9.1 mph ENE14.6 kmh ENE 12.2 mph19.6 kmh 30.30 in1026.1 mb 0.00 in0.0 mm 0.00 in0.0 mm 0.00 in0.0 mm
03:20 PM 61.3°F16.3°C 46.3°F7.9°C 58% 8.9 mph E14.3 kmh E 12.2 mph19.6 kmh 30.30 in1026.1 mb 0.00 in0.0 mm 0.00 in0.0 mm 0.00 in0.0 mm
03:25 PM 61.4°F16.3°C 46.5°F8.1°C 58% 9.0 mph ENE14.5 kmh ENE 12.2 mph19.6 kmh 30.30 in1026.1 mb 0.00 in0.0 mm 0.00 in0.0 mm 0.00 in0.0 mm
03:30 PM 61.4°F16.3°C 46.5°F8.1°C 58% 8.9 mph NE14.3 kmh NE 17.3 mph27.8 kmh 30.30 in1026.1 mb 0.00 in0.0 mm 0.00 in0.0 mm 0.00 in0.0 mm
03:35 PM 61.4°F16.3°C 46.5°F8.1°C 58% 9.6 mph NE15.4 kmh NE 17.3 mph27.8 kmh 30.30 in1026.1 mb 0.00 in0.0 mm 0.00 in0.0 mm 0.00 in0.0 mm
03:40 PM 61.6°F16.4°C 46.7°F8.2°C 58% 8.1 mph ENE13.0 kmh ENE 14.0 mph22.5 kmh 30.30 in1026.1 mb 0.00 in0.0 mm 0.00 in0.0 mm 0.00 in0.0 mm
03:45 PM 61.4°F16.3°C 46.1°F7.8°C 57% 7.5 mph NE12.1 kmh NE 10.4 mph16.7 kmh 30.30 in1026.1 mb 0.00 in0.0 mm 0.00 in0.0 mm 0.00 in0.0 mm
03:50 PM 61.6°F16.4°C 46.2°F7.9°C 57% 8.5 mph NE13.7 kmh NE 10.4 mph16.7 kmh 30.30 in1026.1 mb 0.00 in0.0 mm 0.00 in0.0 mm 0.00 in0.0 mm
03:55 PM 61.6°F16.4°C 46.2°F7.9°C 57% 8.0 mph NE12.9 kmh NE 10.7 mph17.2 kmh 30.33 in1027.1 mb 0.00 in0.0 mm 0.00 in0.0 mm 0.00 in0.0 mm
04:00 PM 61.4°F16.3°C 46.1°F7.8°C 57% 7.9 mph ENE12.7 kmh ENE 10.7 mph17.2 kmh 30.33 in1027.1 mb 0.00 in0.0 mm 0.00 in0.0 mm 0.00 in0.0 mm
04:05 PM 61.3°F16.3°C 45.9°F7.7°C 57% 9.7 mph ENE15.6 kmh ENE 14.3 mph23.0 kmh 30.33 in1027.1 mb 0.00 in0.0 mm 0.00 in0.0 mm 0.00 in0.0 mm
04:10 PM 61.1°F16.2°C 45.7°F7.6°C 57% 10.6 mph NE17.1 kmh NE 14.3 mph23.0 kmh 30.33 in1027.1 mb 0.00 in0.0 mm 0.00 in0.0 mm 0.00 in0.0 mm
04:15 PM 60.9°F16.1°C 45.5°F7.5°C 57% 10.1 mph NNE16.3 kmh NNE 14.0 mph22.5 kmh 30.33 in1027.1 mb 0.00 in0.0 mm 0.00 in0.0 mm 0.00 in0.0 mm
04:20 PM 60.9°F16.1°C 45.5°F7.5°C 57% 9.1 mph NE14.6 kmh NE 13.4 mph21.6 kmh 30.33 in1027.1 mb 0.00 in0.0 mm 0.00 in0.0 mm 0.00 in0.0 mm
04:25 PM 60.7°F15.9°C 45.4°F7.4°C 57% 8.1 mph ENE13.0 kmh ENE 13.1 mph21.1 kmh 30.30 in1026.1 mb 0.00 in0.0 mm 0.00 in0.0 mm 0.00 in0.0 mm
04:30 PM 60.5°F15.8°C 45.2°F7.3°C 57% 10.3 mph ENE16.6 kmh ENE 16.1 mph25.9 kmh 30.30 in1026.1 mb 0.00 in0.0 mm 0.00 in0.0 mm 0.00 in0.0 mm
04:35 PM 60.5°F15.8°C 45.2°F7.3°C 57% 10.0 mph NE16.1 kmh NE 16.1 mph25.9 kmh 30.30 in1026.1 mb 0.00 in0.0 mm 0.00 in0.0 mm 0.00 in0.0 mm
04:40 PM 60.5°F15.8°C 45.2°F7.3°C 57% 9.0 mph NE14.5 kmh NE 14.9 mph24.0 kmh 30.30 in1026.1 mb 0.00 in0.0 mm 0.00 in0.0 mm 0.00 in0.0 mm
04:45 PM 60.5°F15.8°C 45.2°F7.3°C 57% 9.9 mph NE15.9 kmh NE 14.9 mph24.0 kmh 30.30 in1026.1 mb 0.00 in0.0 mm 0.00 in0.0 mm 0.00 in0.0 mm
04:50 PM 60.3°F15.7°C 45.0°F7.2°C 57% 8.7 mph ENE14.0 kmh ENE 13.1 mph21.1 kmh 30.30 in1026.1 mb 0.00 in0.0 mm 0.00 in0.0 mm 0.00 in0.0 mm
04:55 PM 60.3°F15.7°C 44.6°F7.0°C 56% 8.7 mph NE14.0 kmh NE 10.7 mph17.2 kmh 30.33 in1027.1 mb 0.00 in0.0 mm 0.00 in0.0 mm 0.00 in0.0 mm
05:00 PM 60.5°F15.8°C 45.2°F7.3°C 57% 8.7 mph NE14.0 kmh NE 10.7 mph17.2 kmh 30.33 in1027.1 mb 0.00 in0.0 mm 0.00 in0.0 mm 0.00 in0.0 mm
05:05 PM 60.7°F15.9°C 45.4°F7.4°C 57% 8.1 mph NE13.0 kmh NE 10.7 mph17.2 kmh 30.33 in1027.1 mb 0.00 in0.0 mm 0.00 in0.0 mm 0.00 in0.0 mm
05:10 PM 60.7°F15.9°C 45.4°F7.4°C 57% 7.7 mph NE12.4 kmh NE 10.7 mph17.2 kmh 30.30 in1026.1 mb 0.00 in0.0 mm 0.00 in0.0 mm 0.00 in0.0 mm
05:15 PM 60.9°F16.1°C 45.1°F7.3°C 56% 6.8 mph NE10.9 kmh NE 10.7 mph17.2 kmh 30.30 in1026.1 mb 0.00 in0.0 mm 0.00 in0.0 mm 0.00 in0.0 mm
05:20 PM 60.9°F16.1°C 44.6°F7.0°C 55% 7.3 mph NE11.7 kmh NE 11.3 mph18.2 kmh 30.30 in1026.1 mb 0.00 in0.0 mm 0.00 in0.0 mm 0.00 in0.0 mm
05:25 PM 60.7°F15.9°C 44.4°F6.9°C 55% 7.4 mph ENE11.9 kmh ENE 11.3 mph18.2 kmh 30.30 in1026.1 mb 0.00 in0.0 mm 0.00 in0.0 mm 0.00 in0.0 mm
05:30 PM 60.7°F15.9°C 44.0°F6.7°C 54% 7.1 mph ENE11.4 kmh ENE 11.6 mph18.7 kmh 30.30 in1026.1 mb 0.00 in0.0 mm 0.00 in0.0 mm 0.00 in0.0 mm
05:35 PM 60.5°F15.8°C 43.8°F6.6°C 54% 8.8 mph NE14.2 kmh NE 13.1 mph21.1 kmh 30.30 in1026.1 mb 0.00 in0.0 mm 0.00 in0.0 mm 0.00 in0.0 mm
05:40 PM 60.5°F15.8°C 43.8°F6.6°C 54% 8.1 mph NE13.0 kmh NE 13.1 mph21.1 kmh 30.33 in1027.1 mb 0.00 in0.0 mm 0.00 in0.0 mm 0.00 in0.0 mm
05:45 PM 60.7°F15.9°C 44.0°F6.7°C 54% 7.0 mph ENE11.3 kmh ENE 11.6 mph18.7 kmh 30.33 in1027.1 mb 0.00 in0.0 mm 0.00 in0.0 mm 0.00 in0.0 mm
05:50 PM 60.5°F15.8°C 43.3°F6.3°C 53% 7.3 mph NE11.7 kmh NE 11.6 mph18.7 kmh 30.33 in1027.1 mb 0.00 in0.0 mm 0.00 in0.0 mm 0.00 in0.0 mm
05:55 PM 60.3°F15.7°C 43.6°F6.4°C 54% 9.5 mph NE15.3 kmh NE 14.0 mph22.5 kmh 30.33 in1027.1 mb 0.00 in0.0 mm 0.00 in0.0 mm 0.00 in0.0 mm
06:00 PM 60.2°F15.7°C 43.5°F6.4°C 54% 10.4 mph NE16.7 kmh NE 14.0 mph22.5 kmh 30.33 in1027.1 mb 0.00 in0.0 mm 0.00 in0.0 mm 0.00 in0.0 mm
06:05 PM 60.2°F15.7°C 43.5°F6.4°C 54% 10.0 mph ENE16.1 kmh ENE 14.0 mph22.5 kmh 30.33 in1027.1 mb 0.00 in0.0 mm 0.00 in0.0 mm 0.00 in0.0 mm
06:10 PM 60.2°F15.7°C 43.5°F6.4°C 54% 9.6 mph E15.4 kmh E 11.6 mph18.7 kmh 30.33 in1027.1 mb 0.00 in0.0 mm 0.00 in0.0 mm 0.00 in0.0 mm
06:15 PM 60.2°F15.7°C 43.5°F6.4°C 54% 8.8 mph E14.2 kmh E 13.4 mph21.6 kmh 30.33 in1027.1 mb 0.00 in0.0 mm 0.00 in0.0 mm 0.00 in0.0 mm
06:20 PM 60.2°F15.7°C 43.5°F6.4°C 54% 7.5 mph NE12.1 kmh NE 13.4 mph21.6 kmh 30.33 in1027.1 mb 0.00 in0.0 mm 0.00 in0.0 mm 0.00 in0.0 mm
06:25 PM 60.2°F15.7°C 43.0°F6.1°C 53% 8.0 mph NE12.9 kmh NE 13.4 mph21.6 kmh 30.33 in1027.1 mb 0.00 in0.0 mm 0.00 in0.0 mm 0.00 in0.0 mm
06:30 PM 59.8°F15.4°C 42.6°F5.9°C 53% 8.6 mph NE13.8 kmh NE 13.7 mph22.0 kmh 30.33 in1027.1 mb 0.00 in0.0 mm 0.00 in0.0 mm 0.00 in0.0 mm
06:35 PM 59.3°F15.2°C 42.6°F5.9°C 54% 7.9 mph NE12.7 kmh NE 13.7 mph22.0 kmh 30.33 in1027.1 mb 0.00 in0.0 mm 0.00 in0.0 mm 0.00 in0.0 mm
06:40 PM 59.1°F15.1°C 42.5°F5.8°C 54% 6.6 mph NE10.6 kmh NE 10.1 mph16.3 kmh 30.33 in1027.1 mb 0.00 in0.0 mm 0.00 in0.0 mm 0.00 in0.0 mm
06:45 PM 58.7°F14.8°C 42.1°F5.6°C 54% 7.1 mph ENE11.4 kmh ENE 12.8 mph20.6 kmh 30.33 in1027.1 mb 0.00 in0.0 mm 0.00 in0.0 mm 0.00 in0.0 mm
06:50 PM 58.2°F14.6°C 41.6°F5.3°C 54% 8.0 mph NE12.9 kmh NE 12.8 mph20.6 kmh 30.33 in1027.1 mb 0.00 in0.0 mm 0.00 in0.0 mm 0.00 in0.0 mm
06:55 PM 58.0°F14.4°C 41.4°F5.2°C 54% 7.6 mph NE12.2 kmh NE 10.1 mph16.3 kmh 30.33 in1027.1 mb 0.00 in0.0 mm 0.00 in0.0 mm 0.00 in0.0 mm
07:00 PM 57.7°F14.3°C 41.6°F5.3°C 55% 9.2 mph ENE14.8 kmh ENE 13.7 mph22.0 kmh 30.33 in1027.1 mb 0.00 in0.0 mm 0.00 in0.0 mm 0.00 in0.0 mm
07:05 PM 57.5°F14.2°C 41.4°F5.2°C 55% 10.1 mph ENE16.3 kmh ENE 13.7 mph22.0 kmh 30.33 in1027.1 mb 0.00 in0.0 mm 0.00 in0.0 mm 0.00 in0.0 mm
07:10 PM 57.1°F13.9°C 41.1°F5.1°C 55% 8.2 mph NE13.2 kmh NE 11.3 mph18.2 kmh 30.33 in1027.1 mb 0.00 in0.0 mm 0.00 in0.0 mm 0.00 in0.0 mm
07:15 PM 57.1°F13.9°C 41.1°F5.1°C 55% 7.6 mph NE12.2 kmh NE 11.3 mph18.2 kmh 30.33 in1027.1 mb 0.00 in0.0 mm 0.00 in0.0 mm 0.00 in0.0 mm
07:20 PM 56.6°F13.7°C 41.0°F5.0°C 56% 8.0 mph ENE12.9 kmh ENE 11.3 mph18.2 kmh 30.33 in1027.1 mb 0.00 in0.0 mm 0.00 in0.0 mm 0.00 in0.0 mm
07:25 PM 56.4°F13.6°C 40.9°F4.9°C 56% 7.5 mph ENE12.1 kmh ENE 11.3 mph18.2 kmh 30.33 in1027.1 mb 0.00 in0.0 mm 0.00 in0.0 mm 0.00 in0.0 mm
07:30 PM 56.0°F13.3°C 40.5°F4.7°C 56% 7.1 mph NE11.4 kmh NE 10.7 mph17.2 kmh 30.33 in1027.1 mb 0.00 in0.0 mm 0.00 in0.0 mm 0.00 in0.0 mm
07:35 PM 55.7°F13.2°C 40.7°F4.8°C 57% 7.2 mph NE11.6 kmh NE 10.7 mph17.2 kmh 30.33 in1027.1 mb 0.00 in0.0 mm 0.00 in0.0 mm 0.00 in0.0 mm
07:40 PM 55.7°F13.2°C 40.7°F4.8°C 57% 7.0 mph NE11.3 kmh NE 10.4 mph16.7 kmh 30.33 in1027.1 mb 0.00 in0.0 mm 0.00 in0.0 mm 0.00 in0.0 mm
07:45 PM 55.3°F12.9°C 40.3°F4.6°C 57% 6.2 mph NE10.0 kmh NE 7.7 mph12.4 kmh 30.33 in1027.1 mb 0.00 in0.0 mm 0.00 in0.0 mm 0.00 in0.0 mm
07:50 PM 55.0°F12.8°C 40.0°F4.4°C 57% 7.1 mph NE11.4 kmh NE 13.1 mph21.1 kmh 30.33 in1027.1 mb 0.00 in0.0 mm 0.00 in0.0 mm 0.00 in0.0 mm
07:55 PM 54.8°F12.7°C 39.8°F4.3°C 57% 8.1 mph NE13.0 kmh NE 13.1 mph21.1 kmh 30.33 in1027.1 mb 0.00 in0.0 mm 0.00 in0.0 mm 0.00 in0.0 mm
08:00 PM 54.6°F12.6°C 40.1°F4.5°C 58% 8.2 mph NE13.2 kmh NE 10.4 mph16.7 kmh 30.33 in1027.1 mb 0.00 in0.0 mm 0.00 in0.0 mm 0.00 in0.0 mm
08:05 PM 54.2°F12.3°C 39.8°F4.3°C 58% 7.9 mph NE12.7 kmh NE 10.4 mph16.7 kmh 30.33 in1027.1 mb 0.00 in0.0 mm 0.00 in0.0 mm 0.00 in0.0 mm
08:10 PM 53.9°F12.2°C 39.9°F4.4°C 59% 6.8 mph NE10.9 kmh NE 10.4 mph16.7 kmh 30.33 in1027.1 mb 0.00 in0.0 mm 0.00 in0.0 mm 0.00 in0.0 mm
08:15 PM 53.7°F12.1°C 39.7°F4.3°C 59% 6.6 mph NE10.6 kmh NE 8.6 mph13.8 kmh 30.33 in1027.1 mb 0.00 in0.0 mm 0.00 in0.0 mm 0.00 in0.0 mm
08:20 PM 53.7°F12.1°C 39.7°F4.3°C 59% 7.5 mph NE12.1 kmh NE 10.4 mph16.7 kmh 30.33 in1027.1 mb 0.00 in0.0 mm 0.00 in0.0 mm 0.00 in0.0 mm
08:25 PM 53.3°F11.8°C 39.8°F4.3°C 60% 7.4 mph ENE11.9 kmh ENE 10.4 mph16.7 kmh 30.33 in1027.1 mb 0.00 in0.0 mm 0.00 in0.0 mm 0.00 in0.0 mm
08:30 PM 53.0°F11.7°C 39.4°F4.1°C 60% 6.8 mph NE10.9 kmh NE 10.1 mph16.3 kmh 30.33 in1027.1 mb 0.00 in0.0 mm 0.00 in0.0 mm 0.00 in0.0 mm
08:35 PM 52.8°F11.6°C 39.3°F4.1°C 60% 7.4 mph NE11.9 kmh NE 10.1 mph16.3 kmh 30.33 in1027.1 mb 0.00 in0.0 mm 0.00 in0.0 mm 0.00 in0.0 mm
08:40 PM 52.6°F11.4°C 39.5°F4.2°C 61% 6.8 mph NE10.9 kmh NE 9.5 mph15.3 kmh 30.33 in1027.1 mb 0.00 in0.0 mm 0.00 in0.0 mm 0.00 in0.0 mm
08:45 PM 52.4°F11.3°C 39.4°F4.1°C 61% 6.3 mph NE10.1 kmh NE 8.0 mph12.9 kmh 30.33 in1027.1 mb 0.00 in0.0 mm 0.00 in0.0 mm 0.00 in0.0 mm
08:50 PM 52.3°F11.3°C 39.6°F4.2°C 62% 5.3 mph NE8.5 kmh NE 7.7 mph12.4 kmh 30.33 in1027.1 mb 0.00 in0.0 mm 0.00 in0.0 mm 0.00 in0.0 mm
08:55 PM 52.1°F11.2°C 39.4°F4.1°C 62% 5.0 mph NE8.0 kmh NE 8.0 mph12.9 kmh 30.33 in1027.1 mb 0.00 in0.0 mm 0.00 in0.0 mm 0.00 in0.0 mm
09:00 PM 51.9°F11.1°C 39.3°F4.1°C 62% 5.4 mph NE8.7 kmh NE 8.0 mph12.9 kmh 30.33 in1027.1 mb 0.00 in0.0 mm 0.00 in0.0 mm 0.00 in0.0 mm
09:05 PM 51.7°F10.9°C 39.5°F4.2°C 63% 4.9 mph ENE7.9 kmh ENE 7.7 mph12.4 kmh 30.33 in1027.1 mb 0.00 in0.0 mm 0.00 in0.0 mm 0.00 in0.0 mm
09:10 PM 51.7°F10.9°C 39.5°F4.2°C 63% 4.8 mph NE7.7 kmh NE 8.0 mph12.9 kmh 30.33 in1027.1 mb 0.00 in0.0 mm 0.00 in0.0 mm 0.00 in0.0 mm
09:15 PM 51.3°F10.7°C 39.2°F4.0°C 63% 4.9 mph ENE7.9 kmh ENE 8.0 mph12.9 kmh 30.33 in1027.1 mb 0.00 in0.0 mm 0.00 in0.0 mm 0.00 in0.0 mm
09:20 PM 51.3°F10.7°C 39.2°F4.0°C 63% 4.7 mph ENE7.6 kmh ENE 8.0 mph12.9 kmh 30.33 in1027.1 mb 0.00 in0.0 mm 0.00 in0.0 mm 0.00 in0.0 mm
09:25 PM 51.0°F10.6°C 39.2°F4.0°C 64% 5.9 mph NE9.5 kmh NE 9.8 mph15.8 kmh 30.33 in1027.1 mb 0.00 in0.0 mm 0.00 in0.0 mm 0.00 in0.0 mm
09:30 PM 51.0°F10.6°C 39.2°F4.0°C 64% 7.0 mph NE11.3 kmh NE 9.8 mph15.8 kmh 30.33 in1027.1 mb 0.00 in0.0 mm 0.00 in0.0 mm 0.00 in0.0 mm
09:35 PM 50.8°F10.4°C 39.1°F3.9°C 64% 7.3 mph E11.7 kmh E 10.7 mph17.2 kmh 30.33 in1027.1 mb 0.00 in0.0 mm 0.00 in0.0 mm 0.00 in0.0 mm
09:40 PM 50.8°F10.4°C 39.1°F3.9°C 64% 7.0 mph ENE11.3 kmh ENE 10.7 mph17.2 kmh 30.33 in1027.1 mb 0.00 in0.0 mm 0.00 in0.0 mm 0.00 in0.0 mm
09:45 PM 50.6°F10.3°C 38.9°F3.8°C 64% 6.4 mph NE10.3 kmh NE 9.2 mph14.8 kmh 30.33 in1027.1 mb 0.00 in0.0 mm 0.00 in0.0 mm 0.00 in0.0 mm
09:50 PM 50.5°F10.3°C 38.7°F3.7°C 64% 7.0 mph ENE11.3 kmh ENE 9.2 mph14.8 kmh 30.33 in1027.1 mb 0.00 in0.0 mm 0.00 in0.0 mm 0.00 in0.0 mm
09:55 PM 50.5°F10.3°C 38.7°F3.7°C 64% 7.5 mph ENE12.1 kmh ENE 14.0 mph22.5 kmh 30.33 in1027.1 mb 0.00 in0.0 mm 0.00 in0.0 mm 0.00 in0.0 mm
10:00 PM 50.5°F10.3°C 38.7°F3.7°C 64% 6.8 mph ENE10.9 kmh ENE 14.0 mph22.5 kmh 30.33 in1027.1 mb 0.00 in0.0 mm 0.00 in0.0 mm 0.00 in0.0 mm
10:05 PM 50.5°F10.3°C 38.7°F3.7°C 64% 6.9 mph NE11.1 kmh NE 9.8 mph15.8 kmh 30.33 in1027.1 mb 0.00 in0.0 mm 0.00 in0.0 mm 0.00 in0.0 mm
10:10 PM 50.5°F10.3°C 38.7°F3.7°C 64% 7.2 mph NE11.6 kmh NE 9.8 mph15.8 kmh 30.33 in1027.1 mb 0.00 in0.0 mm 0.00 in0.0 mm 0.00 in0.0 mm
10:15 PM 50.5°F10.3°C 38.7°F3.7°C 64% 6.9 mph ENE11.1 kmh ENE 11.3 mph18.2 kmh 30.33 in1027.1 mb 0.00 in0.0 mm 0.00 in0.0 mm 0.00 in0.0 mm
10:20 PM 50.5°F10.3°C 38.7°F3.7°C 64% 8.3 mph E13.4 kmh E 12.8 mph20.6 kmh 30.33 in1027.1 mb 0.00 in0.0 mm 0.00 in0.0 mm 0.00 in0.0 mm
10:25 PM 50.3°F10.2°C 38.9°F3.8°C 65% 9.2 mph E14.8 kmh E 12.8 mph20.6 kmh 30.33 in1027.1 mb 0.00 in0.0 mm 0.00 in0.0 mm 0.00 in0.0 mm
10:30 PM 50.3°F10.2°C 38.9°F3.8°C 65% 7.4 mph ENE11.9 kmh ENE 10.7 mph17.2 kmh 30.33 in1027.1 mb 0.00 in0.0 mm 0.00 in0.0 mm 0.00 in0.0 mm
10:35 PM 50.3°F10.2°C 38.9°F3.8°C 65% 6.9 mph E11.1 kmh E 8.6 mph13.8 kmh 30.33 in1027.1 mb 0.00 in0.0 mm 0.00 in0.0 mm 0.00 in0.0 mm
10:40 PM 50.1°F10.1°C 38.8°F3.8°C 65% 7.4 mph ENE11.9 kmh ENE 9.8 mph15.8 kmh 30.33 in1027.1 mb 0.00 in0.0 mm 0.00 in0.0 mm 0.00 in0.0 mm
10:45 PM 50.1°F10.1°C 38.8°F3.8°C 65% 8.8 mph ENE14.2 kmh ENE 12.5 mph20.1 kmh 30.33 in1027.1 mb 0.00 in0.0 mm 0.00 in0.0 mm 0.00 in0.0 mm
10:50 PM 50.1°F10.1°C 38.8°F3.8°C 65% 9.8 mph E15.8 kmh E 12.5 mph20.1 kmh 30.33 in1027.1 mb 0.00 in0.0 mm 0.00 in0.0 mm 0.00 in0.0 mm
10:55 PM 50.1°F10.1°C 38.8°F3.8°C 65% 9.3 mph ENE15.0 kmh ENE 11.6 mph18.7 kmh 30.36 in1028.1 mb 0.00 in0.0 mm 0.00 in0.0 mm 0.00 in0.0 mm
11:00 PM 50.1°F10.1°C 38.8°F3.8°C 65% 9.2 mph ENE14.8 kmh ENE 12.8 mph20.6 kmh 30.36 in1028.1 mb 0.00 in0.0 mm 0.00 in0.0 mm 0.00 in0.0 mm
11:05 PM 50.1°F10.1°C 38.8°F3.8°C 65% 9.2 mph ENE14.8 kmh ENE 13.1 mph21.1 kmh 30.36 in1028.1 mb 0.00 in0.0 mm 0.00 in0.0 mm 0.00 in0.0 mm
11:10 PM 50.1°F10.1°C 38.8°F3.8°C 65% 8.5 mph ENE13.7 kmh ENE 13.1 mph21.1 kmh 30.33 in1027.1 mb 0.00 in0.0 mm 0.00 in0.0 mm 0.00 in0.0 mm
11:15 PM 49.9°F9.9°C 38.6°F3.7°C 65% 7.7 mph E12.4 kmh E 10.4 mph16.7 kmh 30.33 in1027.1 mb 0.00 in0.0 mm 0.00 in0.0 mm 0.00 in0.0 mm
11:20 PM 49.7°F9.8°C 38.4°F3.6°C 65% 6.6 mph ENE10.6 kmh ENE 9.8 mph15.8 kmh 30.33 in1027.1 mb 0.00 in0.0 mm 0.00 in0.0 mm 0.00 in0.0 mm
11:25 PM 49.7°F9.8°C 38.4°F3.6°C 65% 6.0 mph ENE9.7 kmh ENE 7.4 mph11.9 kmh 30.36 in1028.1 mb 0.00 in0.0 mm 0.00 in0.0 mm 0.00 in0.0 mm
11:30 PM 49.7°F9.8°C 38.4°F3.6°C 65% 7.4 mph ENE11.9 kmh ENE 9.8 mph15.8 kmh 30.36 in1028.1 mb 0.00 in0.0 mm 0.00 in0.0 mm 0.00 in0.0 mm
11:35 PM 49.5°F9.7°C 38.3°F3.5°C 65% 7.8 mph ENE12.6 kmh ENE 10.4 mph16.7 kmh 30.36 in1028.1 mb 0.00 in0.0 mm 0.00 in0.0 mm 0.00 in0.0 mm
11:40 PM 49.5°F9.7°C 37.9°F3.3°C 64% 8.7 mph ENE14.0 kmh ENE 13.7 mph22.0 kmh 30.36 in1028.1 mb 0.00 in0.0 mm 0.00 in0.0 mm 0.00 in0.0 mm
11:45 PM 49.5°F9.7°C 37.9°F3.3°C 64% 8.5 mph ENE13.7 kmh ENE 13.7 mph22.0 kmh 30.36 in1028.1 mb 0.00 in0.0 mm 0.00 in0.0 mm 0.00 in0.0 mm
11:50 PM 49.4°F9.7°C 37.7°F3.2°C 64% 7.8 mph ENE12.6 kmh ENE 11.6 mph18.7 kmh 30.36 in1028.1 mb 0.00 in0.0 mm 0.00 in0.0 mm 0.00 in0.0 mm
11:55 PM 49.4°F9.7°C 37.7°F3.2°C 64% 7.8 mph ENE12.6 kmh ENE 11.6 mph18.7 kmh 30.36 in1028.1 mb 0.00 in0.0 mm 0.00 in0.0 mm 0.00 in0.0 mm